createdAt,value
2023-08-17T00:00:26.780Z,75282.31
2023-08-17T00:02:55.384Z,75538.44
2023-08-17T00:05:23.900Z,76306.91
2023-08-17T00:07:52.423Z,77075.53
2023-08-17T00:10:21.175Z,78356.94
2023-08-17T00:12:49.754Z,79638.84
2023-08-17T00:15:18.296Z,80921.25
2023-08-17T00:17:48.120Z,82204.09
2023-08-17T00:20:16.913Z,83230.72
2023-08-17T00:22:46.067Z,84771.25
2023-08-17T00:25:14.839Z,85798.66
2023-08-17T00:27:43.414Z,86569.41
2023-08-17T00:30:12.907Z,87083.34
2023-08-17T00:32:41.505Z,87597.34
2023-08-17T00:35:11.691Z,88111.41
2023-08-17T00:37:41.986Z,88625.56
2023-08-17T00:40:11.527Z,89654.13
2023-08-17T00:42:40.080Z,90168.50
2023-08-17T00:45:09.515Z,90425.72
2023-08-17T00:47:38.148Z,90425.72
2023-08-17T00:50:08.034Z,90682.97
2023-08-17T00:52:38.025Z,90940.22
2023-08-17T00:55:07.986Z,91197.50
2023-08-17T00:57:37.369Z,91197.50
2023-08-17T01:00:10.058Z,91712.13
2023-08-17T01:02:38.567Z,92226.81
2023-08-17T01:05:07.519Z,92741.59
2023-08-17T01:07:38.565Z,92999.00
2023-08-17T01:10:10.472Z,93256.44
2023-08-17T01:12:44.241Z,93771.38
2023-08-17T01:15:17.325Z,94286.38
2023-08-17T01:17:49.898Z,94801.44
2023-08-17T01:20:20.535Z,95316.59
2023-08-17T01:22:54.905Z,95831.81
2023-08-17T01:25:25.262Z,96347.13
2023-08-17T01:27:53.789Z,96347.13
2023-08-17T01:30:25.865Z,96862.50
2023-08-17T01:33:02.312Z,97120.22
2023-08-17T01:35:39.620Z,97377.97
2023-08-17T01:38:14.664Z,97893.50
2023-08-17T01:40:44.935Z,98409.13
2023-08-17T01:43:15.348Z,99182.69
2023-08-17T01:45:46.451Z,99440.56
2023-08-17T01:48:14.930Z,100214.34
2023-08-17T01:50:43.295Z,100214.34
2023-08-17T01:53:12.856Z,100730.31
2023-08-17T01:55:41.269Z,100988.31
2023-08-17T01:58:11.088Z,100988.31
2023-08-17T02:00:39.913Z,100988.31
2023-08-17T02:03:08.364Z,101246.34
2023-08-17T02:05:36.846Z,101246.34
2023-08-17T02:08:05.748Z,101246.34
2023-08-17T02:10:34.236Z,101246.34
2023-08-17T02:13:16.285Z,101246.34
2023-08-17T02:15:49.067Z,101246.34
2023-08-17T02:18:17.549Z,101246.34
2023-08-17T02:20:46.032Z,101246.34
2023-08-17T02:23:14.492Z,100988.31
2023-08-17T02:25:43.106Z,100988.31
2023-08-17T02:28:11.601Z,100988.31
2023-08-17T02:30:40.183Z,100988.31
2023-08-17T02:33:10.104Z,100730.31
2023-08-17T02:35:38.604Z,100988.31
2023-08-17T02:38:07.454Z,100988.31
2023-08-17T02:40:36.025Z,100988.31
2023-08-17T02:43:04.926Z,100214.34
2023-08-17T02:45:33.390Z,100214.34
2023-08-17T02:48:02.011Z,100472.31
2023-08-17T02:50:32.355Z,99956.41
2023-08-17T02:53:01.068Z,99698.47
2023-08-17T02:55:29.453Z,99440.56
2023-08-17T02:57:57.922Z,99182.69
2023-08-17T03:00:27.388Z,98666.94
2023-08-17T03:02:55.958Z,98666.94
2023-08-17T03:05:24.542Z,98409.13
2023-08-17T03:07:54.522Z,97893.50
2023-08-17T03:10:22.951Z,97893.50
2023-08-17T03:12:52.653Z,97635.72
2023-08-17T03:15:21.987Z,97893.50
2023-08-17T03:17:50.696Z,97635.72
2023-08-17T03:20:19.232Z,97893.50
2023-08-17T03:22:47.945Z,98151.31
2023-08-17T03:25:20.024Z,98151.31
2023-08-17T03:27:48.649Z,98151.31
2023-08-17T03:30:17.225Z,97893.50
2023-08-17T03:32:45.712Z,98151.31
2023-08-17T03:35:14.606Z,98151.31
2023-08-17T03:37:43.614Z,98151.31
2023-08-17T03:40:13.428Z,97893.50
2023-08-17T03:42:44.374Z,97893.50
2023-08-17T03:45:12.889Z,97893.50
2023-08-17T03:47:41.349Z,97893.50
2023-08-17T03:50:11.346Z,98151.31
2023-08-17T03:52:39.835Z,98666.94
2023-08-17T03:55:09.073Z,99182.69
2023-08-17T03:57:39.945Z,99440.56
2023-08-17T04:00:12.393Z,99698.47
2023-08-17T04:02:43.826Z,99956.41
2023-08-17T04:05:16.908Z,99956.41
2023-08-17T04:07:45.594Z,100214.34
2023-08-17T04:10:13.958Z,100472.31
2023-08-17T04:12:42.622Z,100730.31
2023-08-17T04:15:12.717Z,100988.31
2023-08-17T04:17:41.155Z,101504.38
2023-08-17T04:20:10.533Z,102020.53
2023-08-17T04:22:39.046Z,102536.75
2023-08-17T04:25:08.493Z,102794.91
2023-08-17T04:27:37.047Z,103311.25
2023-08-17T04:30:06.906Z,103827.66
2023-08-17T04:32:45.438Z,104085.91
2023-08-17T04:35:14.146Z,104860.72
2023-08-17T04:37:42.599Z,105119.03
2023-08-17T04:40:12.357Z,105894.09
2023-08-17T04:42:40.979Z,106152.47
2023-08-17T04:45:10.749Z,106669.31
2023-08-17T04:47:42.650Z,106927.75
2023-08-17T04:50:17.250Z,107444.69
2023-08-17T04:52:46.159Z,107444.69
2023-08-17T04:55:15.430Z,107703.22
2023-08-17T04:57:44.907Z,107703.22
2023-08-17T05:00:16.614Z,107703.22
2023-08-17T05:02:45.461Z,107444.69
2023-08-17T05:05:15.575Z,107703.22
2023-08-17T05:07:44.105Z,107444.69
2023-08-17T05:10:12.817Z,107703.22
2023-08-17T05:12:43.180Z,107186.22
2023-08-17T05:15:12.540Z,107186.22
2023-08-17T05:17:42.303Z,106927.75
2023-08-17T05:20:15.912Z,107186.22
2023-08-17T05:22:44.542Z,107186.22
2023-08-17T05:25:12.998Z,107186.22
2023-08-17T05:27:42.896Z,107186.22
2023-08-17T05:30:12.913Z,106927.75
2023-08-17T05:32:43.316Z,106927.75
2023-08-17T05:35:12.206Z,106410.88
2023-08-17T05:37:42.157Z,106410.88
2023-08-17T05:40:11.928Z,106410.88
2023-08-17T05:42:40.489Z,106410.88
2023-08-17T05:45:10.164Z,106152.47
2023-08-17T05:47:38.615Z,106410.88
2023-08-17T05:50:08.229Z,106152.47
2023-08-17T05:52:36.550Z,105635.72
2023-08-17T05:55:07.175Z,105635.72
2023-08-17T05:57:36.616Z,105377.34
2023-08-17T06:00:05.841Z,105119.03
2023-08-17T06:02:41.123Z,104860.72
2023-08-17T06:05:10.333Z,104085.91
2023-08-17T06:07:38.969Z,104085.91
2023-08-17T06:10:10.210Z,103569.44
2023-08-17T06:12:38.728Z,103053.06
2023-08-17T06:15:08.429Z,102794.91
2023-08-17T06:17:37.019Z,102278.66
2023-08-17T06:20:06.375Z,102278.66
2023-08-17T06:22:34.771Z,101504.38
2023-08-17T06:25:04.650Z,101246.34
2023-08-17T06:27:34.834Z,99956.41
2023-08-17T06:30:04.129Z,99440.56
2023-08-17T06:32:34.072Z,99698.47
2023-08-17T06:35:02.586Z,99182.69
2023-08-17T06:37:31.090Z,97635.72
2023-08-17T06:39:59.579Z,97120.22
2023-08-17T06:42:28.279Z,96862.50
2023-08-17T06:44:58.391Z,96604.81
2023-08-17T06:47:27.435Z,95831.81
2023-08-17T06:49:58.773Z,96089.47
2023-08-17T06:52:27.286Z,95059.00
2023-08-17T06:54:55.808Z,94286.38
2023-08-17T06:57:25.305Z,94543.91
2023-08-17T06:59:54.240Z,94801.44
2023-08-17T07:02:24.389Z,94028.84
2023-08-17T07:04:53.384Z,94286.38
2023-08-17T07:07:21.972Z,93771.38
2023-08-17T07:09:50.887Z,93513.91
2023-08-17T07:12:20.649Z,92741.59
2023-08-17T07:14:49.113Z,92741.59
2023-08-17T07:17:17.825Z,92484.19
2023-08-17T07:20:13.777Z,91712.13
2023-08-17T07:22:37.190Z,90425.72
2023-08-17T07:25:08.296Z,89139.81
2023-08-17T07:27:37.020Z,89911.31
2023-08-17T07:30:06.005Z,89396.97
2023-08-17T07:32:35.147Z,88882.69
2023-08-17T07:35:05.885Z,88625.56
2023-08-17T07:37:35.074Z,87854.38
2023-08-17T07:40:05.320Z,87854.38
2023-08-17T07:42:34.133Z,88111.41
2023-08-17T07:45:05.757Z,88368.50
2023-08-17T07:47:34.553Z,88368.50
2023-08-17T07:50:05.342Z,88368.50
2023-08-17T07:52:33.986Z,89396.97
2023-08-17T07:55:02.686Z,88368.50
2023-08-17T07:57:31.957Z,89139.81
2023-08-17T08:00:02.800Z,89654.13
2023-08-17T08:02:36.821Z,90168.50
2023-08-17T08:05:08.475Z,90682.97
2023-08-17T08:07:37.202Z,90425.72
2023-08-17T08:10:06.426Z,90425.72
2023-08-17T08:12:35.018Z,90168.50
2023-08-17T08:15:03.844Z,90682.97
2023-08-17T08:17:32.906Z,90682.97
2023-08-17T08:20:01.526Z,91454.81
2023-08-17T08:22:31.497Z,91197.50
2023-08-17T08:25:00.734Z,91712.13
2023-08-17T08:27:29.254Z,91454.81
2023-08-17T08:29:58.485Z,91454.81
2023-08-17T08:32:28.531Z,91969.47
2023-08-17T08:34:57.770Z,91712.13
2023-08-17T08:37:26.744Z,91969.47
2023-08-17T08:39:57.974Z,91454.81
2023-08-17T08:42:27.552Z,91197.50
2023-08-17T08:44:56.268Z,91712.13
2023-08-17T08:47:26.678Z,91197.50
2023-08-17T08:50:02.695Z,91197.50
2023-08-17T08:52:37.160Z,90940.22
2023-08-17T08:55:14.012Z,91197.50
2023-08-17T08:57:43.853Z,91712.13
2023-08-17T09:00:14.986Z,92741.59
2023-08-17T09:02:45.046Z,92999.00
2023-08-17T09:05:14.459Z,92741.59
2023-08-17T09:07:44.988Z,91454.81
2023-08-17T09:10:17.583Z,91197.50
2023-08-17T09:12:49.068Z,91197.50
2023-08-17T09:15:18.415Z,91712.13
2023-08-17T09:17:49.060Z,91454.81
2023-08-17T09:20:39.211Z,91712.13
2023-08-17T09:23:14.097Z,90425.72
2023-08-17T09:25:46.201Z,90682.97
2023-08-17T09:28:16.049Z,89396.97
2023-08-17T09:30:57.346Z,88625.56
2023-08-17T09:33:27.930Z,88882.69
2023-08-17T09:35:59.562Z,89654.13
2023-08-17T09:38:29.556Z,88882.69
2023-08-17T09:41:00.462Z,88368.50
2023-08-17T09:43:32.223Z,88111.41
2023-08-17T09:46:02.983Z,88111.41
2023-08-17T09:48:33.318Z,88368.50
2023-08-17T09:51:03.536Z,88111.41
2023-08-17T09:53:37.309Z,89396.97
2023-08-17T09:56:17.761Z,89654.13
2023-08-17T09:58:46.716Z,89139.81
2023-08-17T10:01:15.817Z,89654.13
2023-08-17T10:03:46.976Z,88625.56
2023-08-17T10:06:19.701Z,88625.56
2023-08-17T10:08:50.748Z,87854.38
2023-08-17T10:11:24.375Z,88625.56
2023-08-17T10:14:00.729Z,88111.41
2023-08-17T10:16:35.752Z,86569.41
2023-08-17T10:19:12.115Z,86312.47
2023-08-17T10:21:46.049Z,86312.47
2023-08-17T10:24:14.926Z,86569.41
2023-08-17T10:26:45.523Z,85798.66
2023-08-17T10:29:17.383Z,86055.56
2023-08-17T10:31:47.782Z,86569.41
2023-08-17T10:34:17.416Z,86569.41
2023-08-17T10:36:47.933Z,86055.56
2023-08-17T10:39:29.337Z,84514.44
2023-08-17T10:42:01.306Z,85284.91
2023-08-17T10:44:48.443Z,81947.50
2023-08-17T10:47:27.806Z,82460.72
2023-08-17T10:49:59.035Z,82974.03
2023-08-17T10:52:29.319Z,82717.38
2023-08-17T10:54:58.452Z,82204.09
2023-08-17T10:57:30.806Z,81177.78
2023-08-17T11:02:55.635Z,78100.63
2023-08-17T11:05:42.750Z,74770.16
2023-08-17T11:08:15.072Z,75282.31
2023-08-17T11:10:48.371Z,74514.09
2023-08-17T11:13:18.377Z,73490.06
2023-08-17T11:15:49.475Z,69984.28
2023-08-17T11:18:18.032Z,71259.06
2023-08-17T11:20:48.137Z,69804.50
2023-08-17T11:23:16.727Z,70064.19
2023-08-17T11:25:45.539Z,70965.31
2023-08-17T11:28:15.360Z,71151.16
2023-08-17T11:30:47.828Z,70687.56
2023-08-17T11:33:16.638Z,69642.69
2023-08-17T11:35:45.482Z,69860.44
2023-08-17T11:38:14.096Z,69185.28
2023-08-17T11:40:42.728Z,69674.66
2023-08-17T11:43:12.572Z,68739.94
2023-08-17T11:45:42.902Z,68392.47
2023-08-17T11:48:13.048Z,67911.28
2023-08-17T11:50:42.098Z,68632.09
2023-08-17T11:53:10.651Z,68516.28
2023-08-17T11:55:39.345Z,67508.00
2023-08-17T11:58:10.632Z,67130.72
2023-08-17T12:00:43.622Z,66282.53
2023-08-17T12:03:15.798Z,65707.84
2023-08-17T12:05:45.845Z,65496.38
2023-08-17T12:08:16.744Z,64191.81
2023-08-17T12:10:47.086Z,62794.09
2023-08-17T12:13:16.006Z,62816.00
2023-08-17T12:15:44.824Z,62764.19
2023-08-17T12:18:14.932Z,62253.88
2023-08-17T12:20:44.549Z,61783.53
2023-08-17T12:23:15.105Z,61871.22
2023-08-17T12:25:43.884Z,62020.69
2023-08-17T12:28:14.998Z,62235.94
2023-08-17T12:30:43.681Z,63003.41
2023-08-17T12:33:12.117Z,62513.00
2023-08-17T12:35:42.285Z,63366.28
2023-08-17T12:38:10.721Z,63454.00
2023-08-17T12:40:39.239Z,63312.44
2023-08-17T12:43:07.795Z,63426.09
2023-08-17T12:45:36.485Z,62991.44
2023-08-17T12:48:05.648Z,63430.06
2023-08-17T12:50:34.619Z,62628.63
2023-08-17T12:53:04.510Z,62692.41
2023-08-17T12:55:35.769Z,62618.66
2023-08-17T12:58:04.586Z,62732.28
2023-08-17T13:00:33.151Z,62469.16
2023-08-17T13:03:01.802Z,62465.16
2023-08-17T13:05:30.448Z,62293.75
2023-08-17T13:07:59.059Z,61905.09
2023-08-17T13:10:29.021Z,62624.63
2023-08-17T13:13:00.454Z,62885.78
2023-08-17T13:15:29.358Z,63240.66
2023-08-17T13:17:58.001Z,63521.78
2023-08-17T13:20:26.510Z,64277.56
2023-08-17T13:22:55.055Z,64000.38
2023-08-17T13:25:23.710Z,64088.13
2023-08-17T13:27:53.664Z,63912.63
2023-08-17T13:30:22.421Z,63366.28
2023-08-17T13:32:51.097Z,63440.03
2023-08-17T13:35:19.654Z,63465.97
2023-08-17T13:37:53.159Z,64020.31
2023-08-17T13:40:21.851Z,64786.19
2023-08-17T13:42:50.263Z,65231.03
2023-08-17T13:45:20.195Z,66118.88
2023-08-17T13:47:48.932Z,66298.47
2023-08-17T13:50:19.854Z,66561.91
2023-08-17T13:52:48.523Z,66929.13
2023-08-17T13:55:17.099Z,66789.44
2023-08-17T13:57:46.302Z,66753.50
2023-08-17T14:00:16.287Z,66442.16
2023-08-17T14:02:46.259Z,67044.91
2023-08-17T14:05:14.779Z,67350.31
2023-08-17T14:07:43.758Z,68610.13
2023-08-17T14:10:18.839Z,68785.84
2023-08-17T14:12:57.611Z,68308.59
2023-08-17T14:15:26.523Z,69684.63
2023-08-17T14:17:56.496Z,70106.13
2023-08-17T14:20:25.580Z,71063.22
2023-08-17T14:22:54.127Z,70178.06
2023-08-17T14:25:22.634Z,71247.06
2023-08-17T14:27:51.192Z,72466.34
2023-08-17T14:30:19.659Z,72130.50
2023-08-17T14:32:48.473Z,72722.25
2023-08-17T14:35:18.585Z,72722.25
2023-08-17T14:37:47.202Z,72722.25
2023-08-17T14:40:15.946Z,72978.16
2023-08-17T14:42:44.576Z,74002.03
2023-08-17T14:45:14.020Z,75538.44
2023-08-17T14:47:42.877Z,75282.31
2023-08-17T14:50:12.041Z,75282.31
2023-08-17T14:52:42.055Z,76306.91
2023-08-17T14:55:11.989Z,76306.91
2023-08-17T14:57:40.520Z,76306.91
2023-08-17T15:00:16.511Z,76563.09
2023-08-17T15:02:45.749Z,77331.78
2023-08-17T15:05:14.441Z,77844.31
2023-08-17T15:07:44.686Z,78100.63
2023-08-17T15:10:13.403Z,78869.66
2023-08-17T15:12:42.468Z,78869.66
2023-08-17T15:15:11.786Z,78869.66
2023-08-17T15:17:40.332Z,78869.66
2023-08-17T15:20:09.627Z,79126.03
2023-08-17T15:22:38.369Z,79382.44
2023-08-17T15:25:09.175Z,79638.84
2023-08-17T15:27:37.738Z,79638.84
2023-08-17T15:30:07.617Z,79638.84
2023-08-17T15:32:36.157Z,78869.66
2023-08-17T15:35:04.694Z,78869.66
2023-08-17T15:37:33.225Z,78869.66
2023-08-17T15:40:01.998Z,78869.66
2023-08-17T15:42:31.940Z,79126.03
2023-08-17T15:45:00.534Z,79638.84
2023-08-17T15:47:29.681Z,79638.84
2023-08-17T15:49:58.681Z,79895.28
2023-08-17T15:52:27.192Z,80151.75
2023-08-17T15:54:55.954Z,80664.72
2023-08-17T15:57:25.857Z,80408.22
2023-08-17T15:59:56.368Z,80921.25
2023-08-17T16:02:24.858Z,80921.25
2023-08-17T16:04:53.583Z,81177.78
2023-08-17T16:07:22.335Z,80408.22
2023-08-17T16:09:50.774Z,81434.31
2023-08-17T16:12:19.392Z,81947.50
2023-08-17T16:14:49.638Z,81947.50
2023-08-17T16:17:20.167Z,82204.09
2023-08-17T16:19:48.706Z,82204.09
2023-08-17T16:22:17.644Z,82204.09
2023-08-17T16:24:46.190Z,82460.72
2023-08-17T16:27:14.894Z,82204.09
2023-08-17T16:29:43.422Z,82204.09
2023-08-17T16:32:12.037Z,82717.38
2023-08-17T16:34:41.946Z,82204.09
2023-08-17T16:37:10.778Z,81690.91
2023-08-17T16:39:39.332Z,81690.91
2023-08-17T16:42:08.478Z,81690.91
2023-08-17T16:44:38.947Z,81434.31
2023-08-17T16:47:07.737Z,81690.91
2023-08-17T16:49:37.608Z,81690.91
2023-08-17T16:52:08.416Z,81177.78
2023-08-17T16:54:37.020Z,81177.78
2023-08-17T16:57:05.456Z,81434.31
2023-08-17T16:59:34.159Z,81690.91
2023-08-17T17:02:03.838Z,82460.72
2023-08-17T17:04:32.677Z,82974.03
2023-08-17T17:07:01.121Z,84257.66
2023-08-17T17:09:31.147Z,85028.06
2023-08-17T17:12:00.228Z,86055.56
2023-08-17T17:14:28.949Z,86826.34
2023-08-17T17:16:57.652Z,87854.38
2023-08-17T17:19:26.489Z,88625.56
2023-08-17T17:21:55.046Z,88882.69
2023-08-17T17:24:23.546Z,89139.81
2023-08-17T17:26:56.483Z,89396.97
2023-08-17T17:29:25.048Z,89911.31
2023-08-17T17:31:53.650Z,90168.50
2023-08-17T17:34:22.357Z,90682.97
2023-08-17T17:36:50.893Z,90940.22
2023-08-17T17:39:19.669Z,91712.13
2023-08-17T17:41:49.029Z,91969.47
2023-08-17T17:44:18.887Z,91969.47
2023-08-17T17:46:51.226Z,92741.59
2023-08-17T17:49:20.578Z,92999.00
2023-08-17T17:51:49.262Z,93256.44
2023-08-17T17:54:17.761Z,93771.38
2023-08-17T17:56:46.399Z,94286.38
2023-08-17T17:59:15.196Z,95059.00
2023-08-17T18:01:46.496Z,95316.59
2023-08-17T18:04:15.532Z,95831.81
2023-08-17T18:06:44.103Z,96347.13
2023-08-17T18:09:13.082Z,96347.13
2023-08-17T18:11:41.834Z,96862.50
2023-08-17T18:14:10.474Z,97120.22
2023-08-17T18:16:39.174Z,97635.72
2023-08-17T18:19:09.169Z,97893.50
2023-08-17T18:21:37.978Z,98666.94
2023-08-17T18:24:07.362Z,98666.94
2023-08-17T18:26:35.866Z,99182.69
2023-08-17T18:29:04.520Z,99440.56
2023-08-17T18:31:33.369Z,99956.41
2023-08-17T18:34:02.007Z,100214.34
2023-08-17T18:36:32.458Z,100214.34
2023-08-17T18:39:01.251Z,100730.31
2023-08-17T18:41:30.021Z,100988.31
2023-08-17T18:43:58.553Z,101246.34
2023-08-17T18:46:27.184Z,101762.47
2023-08-17T18:48:57.415Z,102020.53
2023-08-17T18:51:26.323Z,102278.66
2023-08-17T18:53:56.213Z,102536.75
2023-08-17T18:56:24.925Z,103053.06
2023-08-17T18:58:53.443Z,103053.06
2023-08-17T19:01:22.129Z,103569.44
2023-08-17T19:03:50.628Z,103827.66
2023-08-17T19:06:19.248Z,103827.66
2023-08-17T19:08:47.938Z,104085.91
2023-08-17T19:11:17.860Z,104602.44
2023-08-17T19:13:46.792Z,104860.72
2023-08-17T19:16:16.227Z,105119.03
2023-08-17T19:18:44.727Z,105377.34
2023-08-17T19:21:13.278Z,105377.34
2023-08-17T19:23:42.129Z,105635.72
2023-08-17T19:26:11.447Z,105894.09
2023-08-17T19:28:41.451Z,106152.47
2023-08-17T19:31:12.904Z,106410.88
2023-08-17T19:33:41.445Z,106410.88
2023-08-17T19:36:10.101Z,106669.31
2023-08-17T19:38:38.620Z,106927.75
2023-08-17T19:41:07.147Z,106927.75
2023-08-17T19:43:35.729Z,106927.75
2023-08-17T19:46:05.929Z,107186.22
2023-08-17T19:48:34.830Z,107444.69
2023-08-17T19:51:04.955Z,107444.69
2023-08-17T19:53:33.497Z,107444.69
2023-08-17T19:56:02.193Z,107703.22
2023-08-17T19:58:30.893Z,107961.72
2023-08-17T20:01:08.789Z,108220.28
2023-08-17T20:03:37.701Z,108478.84
2023-08-17T20:06:07.269Z,108478.84
2023-08-17T20:08:36.074Z,108478.84
2023-08-17T20:11:12.621Z,108737.41
2023-08-17T20:13:41.232Z,108737.41
2023-08-17T20:16:11.317Z,108996.00
2023-08-17T20:18:39.982Z,108996.00
2023-08-17T20:21:08.881Z,108996.00
2023-08-17T20:23:37.655Z,109254.63
2023-08-17T20:26:06.547Z,109254.63
2023-08-17T20:28:35.508Z,109254.63
2023-08-17T20:31:05.427Z,109513.28
2023-08-17T20:33:35.684Z,109513.28
2023-08-17T20:36:04.835Z,109513.28
2023-08-17T20:38:33.400Z,109513.28
2023-08-17T20:41:05.082Z,109771.94
2023-08-17T20:43:33.540Z,109771.94
2023-08-17T20:46:02.457Z,110030.59
2023-08-17T20:48:31.201Z,110030.59
2023-08-17T20:51:02.031Z,110289.28
2023-08-17T20:53:30.769Z,110289.28
2023-08-17T20:55:59.621Z,110548.00
2023-08-17T20:58:28.257Z,110548.00
2023-08-17T21:00:56.842Z,110806.75
2023-08-17T21:03:26.126Z,110806.75
2023-08-17T21:05:54.652Z,110806.75
2023-08-17T21:08:24.917Z,111065.50
2023-08-17T21:10:54.019Z,111065.50
2023-08-17T21:13:22.593Z,111324.28
2023-08-17T21:15:51.259Z,111065.50
2023-08-17T21:18:20.347Z,110806.75
2023-08-17T21:20:49.090Z,110806.75
2023-08-17T21:23:17.510Z,110806.75
2023-08-17T21:25:52.187Z,110806.75
2023-08-17T21:28:20.830Z,110806.75
2023-08-17T21:30:49.493Z,111065.50
2023-08-17T21:33:17.937Z,111065.50
2023-08-17T21:35:46.447Z,111324.28
2023-08-17T21:38:15.081Z,111583.06
2023-08-17T21:40:46.172Z,112100.69
2023-08-17T21:43:15.978Z,112100.69
2023-08-17T21:45:44.454Z,112100.69
2023-08-17T21:48:13.008Z,112359.53
2023-08-17T21:50:43.963Z,112359.53
2023-08-17T21:53:12.321Z,112359.53
2023-08-17T21:55:46.356Z,112618.41
2023-08-17T21:58:16.672Z,112618.41
2023-08-17T22:00:45.928Z,112877.31
2023-08-17T22:03:15.793Z,112877.31
2023-08-17T22:05:46.296Z,112877.31
2023-08-17T22:08:14.959Z,112877.31
2023-08-17T22:10:44.807Z,112877.31
2023-08-17T22:13:13.211Z,112877.31
2023-08-17T22:15:43.014Z,112877.31
2023-08-17T22:18:12.317Z,112877.31
2023-08-17T22:20:41.578Z,112877.31
2023-08-17T22:23:10.036Z,112877.31
2023-08-17T22:25:38.852Z,112877.31
2023-08-17T22:28:07.852Z,112877.31
2023-08-17T22:30:36.267Z,112877.31
2023-08-17T22:33:06.962Z,112877.31
2023-08-17T22:35:35.512Z,112877.31
2023-08-17T22:38:04.130Z,112618.41
2023-08-17T22:40:32.781Z,112618.41
2023-08-17T22:43:01.299Z,112618.41
2023-08-17T22:45:29.764Z,112359.53
2023-08-17T22:47:58.539Z,112359.53
2023-08-17T22:50:28.343Z,112618.41
2023-08-17T22:52:56.940Z,112359.53
2023-08-17T22:55:25.594Z,112359.53
2023-08-17T22:57:57.096Z,112100.69
2023-08-17T23:00:25.671Z,111841.88
2023-08-17T23:02:54.434Z,111841.88
2023-08-17T23:05:23.129Z,111841.88
2023-08-17T23:07:53.001Z,111583.06
2023-08-17T23:10:21.824Z,111324.28
2023-08-17T23:12:50.587Z,111324.28
2023-08-17T23:15:19.102Z,111324.28
2023-08-17T23:17:47.759Z,111065.50
2023-08-17T23:20:16.625Z,111065.50
2023-08-17T23:22:45.083Z,111065.50
2023-08-17T23:25:14.858Z,110806.75
2023-08-17T23:27:43.388Z,110806.75
2023-08-17T23:30:12.514Z,110548.00
2023-08-17T23:32:40.968Z,110548.00
2023-08-17T23:35:12.615Z,110548.00
2023-08-17T23:37:41.103Z,110289.28
2023-08-17T23:40:11.026Z,110289.28
2023-08-17T23:42:40.780Z,110289.28
2023-08-17T23:45:09.750Z,110289.28
2023-08-17T23:47:38.324Z,110289.28
2023-08-17T23:50:07.755Z,110289.28
2023-08-17T23:52:36.189Z,110030.59
2023-08-17T23:55:05.324Z,110289.28
2023-08-17T23:57:34.143Z,110030.59
